Issue, Maryland
Current Conditions -  °F | °C
As of 12:55 PM on Friday 24 Oct 2014 (Local Time) from K2W6 Reporting Station
Clear Clear  
Wind Chill: 64°   Ceiling: Unl
Heat Index: 64°   Visibility: 10mi
Dew Point: 43°   Wind: 6mph
Humidity: 45%   Direction: 320°NW
Pressure: 29.94"   Gusts: NA
Location:  38.31°N, 76.92°W
Report Text: K2W6 241655Z AUTO 32005KT 10SM CLR 18/06 A2994 RMK AO1
Loading
Personal Weather Stations






























Interactive Weather Map
Tropical Storm Tracking
New forecast layout! Learn more

10-Day Weather Forecast

Advertisements
Track Severe Weather on mobile